Llefia, Spain
Current Conditions -  °F | °C
As of 3:00 PM on Friday 24 Oct 2014 (Local Time) from LELL Reporting Station
Clear Clear  
Wind Chill: 79°   Ceiling: Unl
Heat Index: 79°   Visibility: 6mi
Dew Point: 46°   Wind: 5mph
Humidity: 32%   Direction: 140°SE
Pressure: 30"   Gusts: NA
Location:  41.44°N, 2.22°E
Report Text: LELL 241300Z 14004KT 100V190 CAVOK 26/08 Q1016
Loading
Personal Weather Stations






























Interactive Weather Map New forecast layout! Learn more

10-Day Weather Forecast

Advertisements
Track Severe Weather on mobile